createdAt,value
2016-09-02T00:00:41.068Z,0
2016-09-02T00:01:39.097Z,0
2016-09-02T00:02:39.484Z,0
2016-09-02T00:03:37.409Z,0
2016-09-02T00:04:38.258Z,0
2016-09-02T00:05:38.611Z,0
2016-09-02T00:06:39.110Z,0
2016-09-02T00:07:38.059Z,0
2016-09-02T00:08:38.965Z,0
2016-09-02T00:09:39.127Z,0
2016-09-02T00:10:38.678Z,0
2016-09-02T00:11:38.141Z,0
2016-09-02T00:12:37.717Z,0
2016-09-02T00:13:38.775Z,0
2016-09-02T00:14:37.673Z,0
2016-09-02T00:15:38.268Z,0
2016-09-02T00:16:38.226Z,0
2016-09-02T00:17:38.367Z,0
2016-09-02T00:18:38.529Z,0
2016-09-02T00:19:38.487Z,0
2016-09-02T00:20:37.560Z,0
2016-09-02T00:21:38.207Z,0
2016-09-02T00:22:37.308Z,0
2016-09-02T00:23:38.510Z,0
2016-09-02T00:24:36.646Z,0
2016-09-02T00:25:37.812Z,0
2016-09-02T00:26:37.957Z,0
2016-09-02T00:27:37.418Z,0
2016-09-02T00:28:37.927Z,0
2016-09-02T00:29:37.834Z,0
2016-09-02T00:30:36.388Z,0
2016-09-02T00:31:37.033Z,0
2016-09-02T00:32:36.787Z,0
2016-09-02T00:33:37.447Z,0
2016-09-02T00:34:36.701Z,0
2016-09-02T00:35:37.747Z,0
2016-09-02T00:36:37.495Z,0
2016-09-02T00:37:37.325Z,0
2016-09-02T00:38:37.686Z,0
2016-09-02T00:39:36.670Z,0
2016-09-02T00:40:37.318Z,0
2016-09-02T00:41:36.625Z,0
2016-09-02T00:42:37.232Z,0
2016-09-02T00:43:37.117Z,0
2016-09-02T00:44:36.279Z,0
2016-09-02T00:45:35.730Z,0
2016-09-02T00:46:36.168Z,0
2016-09-02T00:47:36.806Z,0
2016-09-02T00:48:36.778Z,0
2016-09-02T00:49:36.713Z,0
2016-09-02T00:50:37.064Z,0
2016-09-02T00:51:36.617Z,0
2016-09-02T00:52:35.595Z,0
2016-09-02T00:53:36.522Z,0
2016-09-02T00:54:35.993Z,0
2016-09-02T00:55:36.496Z,0
2016-09-02T00:56:35.003Z,0
2016-09-02T00:57:35.361Z,0
2016-09-02T00:58:36.389Z,0
2016-09-02T00:59:36.267Z,0
2016-09-02T01:00:36.918Z,0
2016-09-02T01:01:36.784Z,0
2016-09-02T01:02:36.139Z,0
2016-09-02T01:03:36.127Z,0
2016-09-02T01:04:36.446Z,0
2016-09-02T01:05:35.288Z,0
2016-09-02T01:06:36.437Z,0
2016-09-02T01:07:36.170Z,0
2016-09-02T01:08:36.055Z,0
2016-09-02T01:09:35.511Z,0
2016-09-02T01:10:35.769Z,0
2016-09-02T01:11:35.766Z,0
2016-09-02T01:12:35.679Z,0
2016-09-02T01:13:34.261Z,0
2016-09-02T01:14:36.283Z,0
2016-09-02T01:15:34.848Z,0
2016-09-02T01:16:35.717Z,0
2016-09-02T01:17:35.438Z,0
2016-09-02T01:18:36.020Z,0
2016-09-02T01:19:34.007Z,0
2016-09-02T01:20:35.309Z,0
2016-09-02T01:21:34.767Z,0
2016-09-02T01:22:35.412Z,0
2016-09-02T01:23:35.168Z,0
2016-09-02T01:24:34.440Z,0
2016-09-02T01:25:35.077Z,0
2016-09-02T01:26:35.021Z,0
2016-09-02T01:27:34.286Z,0
2016-09-02T01:28:33.747Z,0
2016-09-02T01:29:34.898Z,0
2016-09-02T01:30:33.461Z,0
2016-09-02T01:31:34.128Z,0
2016-09-02T01:32:34.549Z,0
2016-09-02T01:33:34.710Z,0
2016-09-02T01:34:34.667Z,0
2016-09-02T01:35:34.609Z,0
2016-09-02T01:36:35.001Z,0
2016-09-02T01:37:34.529Z,0
2016-09-02T01:38:34.889Z,0
2016-09-02T01:39:33.747Z,0
2016-09-02T01:40:34.151Z,0
2016-09-02T01:41:34.637Z,0
2016-09-02T01:42:34.516Z,0
2016-09-02T01:43:34.249Z,0
2016-09-02T01:44:34.189Z,0
2016-09-02T01:45:34.358Z,0
2016-09-02T01:46:33.429Z,0
2016-09-02T01:47:34.121Z,0
2016-09-02T01:48:34.030Z,0
2016-09-02T01:49:32.774Z,0
2016-09-02T01:50:33.229Z,0
2016-09-02T01:51:33.399Z,0
2016-09-02T01:52:34.242Z,0
2016-09-02T01:53:47.525Z,0
2016-09-02T01:54:33.745Z,0
2016-09-02T01:55:33.722Z,0
2016-09-02T01:56:32.319Z,0
2016-09-02T01:57:33.865Z,0
2016-09-02T01:58:33.783Z,0
2016-09-02T01:59:33.237Z,0
2016-09-02T02:00:32.811Z,0
2016-09-02T02:01:32.971Z,0
2016-09-02T02:02:33.600Z,0
2016-09-02T02:03:32.649Z,0
2016-09-02T02:04:32.588Z,0
2016-09-02T02:05:32.560Z,0
2016-09-02T02:06:33.240Z,0
2016-09-02T02:07:32.440Z,0
2016-09-02T02:08:33.571Z,0
2016-09-02T02:09:32.362Z,0
2016-09-02T02:10:33.237Z,0
2016-09-02T02:11:32.955Z,0
2016-09-02T02:12:33.439Z,0
2016-09-02T02:13:32.643Z,0
2016-09-02T02:14:33.311Z,0
2016-09-02T02:15:33.210Z,0
2016-09-02T02:16:32.052Z,0
2016-09-02T02:17:31.308Z,0
2016-09-02T02:18:32.189Z,0
2016-09-02T02:19:31.240Z,0
2016-09-02T02:20:31.857Z,0
2016-09-02T02:21:32.511Z,0
2016-09-02T02:22:32.713Z,0
2016-09-02T02:23:32.659Z,0
2016-09-02T02:24:31.669Z,0
2016-09-02T02:25:32.535Z,0
2016-09-02T02:26:31.566Z,0
2016-09-02T02:27:31.789Z,0
2016-09-02T02:28:32.179Z,0
2016-09-02T02:29:32.410Z,0
2016-09-02T02:30:32.112Z,0
2016-09-02T02:31:32.050Z,0
2016-09-02T02:32:30.602Z,0
2016-09-02T02:33:31.897Z,0
2016-09-02T02:34:31.909Z,0
2016-09-02T02:35:31.489Z,0
2016-09-02T02:36:31.898Z,0
2016-09-02T02:37:31.779Z,0
2016-09-02T02:38:31.950Z,0
2016-09-02T02:39:32.122Z,0
2016-09-02T02:40:32.140Z,0
2016-09-02T02:41:31.589Z,0
2016-09-02T02:42:30.859Z,0
2016-09-02T02:43:31.514Z,0
2016-09-02T02:44:31.850Z,0
2016-09-02T02:45:30.540Z,0
2016-09-02T02:46:31.361Z,0
2016-09-02T02:47:31.313Z,0
2016-09-02T02:48:31.261Z,0
2016-09-02T02:49:31.270Z,0
2016-09-02T02:50:30.622Z,0
2016-09-02T02:51:31.120Z,0
2016-09-02T02:52:30.396Z,0
2016-09-02T02:53:31.251Z,0
2016-09-02T02:54:30.281Z,0
2016-09-02T02:55:30.433Z,0
2016-09-02T02:56:31.081Z,0
2016-09-02T02:57:30.327Z,0
2016-09-02T02:58:30.380Z,0
2016-09-02T02:59:30.952Z,0
2016-09-02T03:00:30.010Z,0
2016-09-02T03:01:29.972Z,0
2016-09-02T03:02:30.524Z,0
2016-09-02T03:03:30.570Z,0
2016-09-02T03:04:30.181Z,0
2016-09-02T03:05:30.641Z,0
2016-09-02T03:06:30.636Z,0
2016-09-02T03:07:30.608Z,0
2016-09-02T03:08:30.350Z,0
2016-09-02T03:09:29.590Z,0
2016-09-02T03:10:30.446Z,0
2016-09-02T03:11:30.593Z,0
2016-09-02T03:12:29.453Z,0
2016-09-02T03:13:29.513Z,0
2016-09-02T03:14:30.095Z,0
2016-09-02T03:15:29.353Z,0
2016-09-02T03:16:30.054Z,0
2016-09-02T03:17:29.236Z,0
2016-09-02T03:18:30.113Z,0
2016-09-02T03:19:28.433Z,0
2016-09-02T03:20:29.979Z,0
2016-09-02T03:21:29.254Z,0
2016-09-02T03:22:29.917Z,0
2016-09-02T03:23:28.243Z,0
2016-09-02T03:24:30.011Z,0
2016-09-02T03:25:28.859Z,0
2016-09-02T03:26:29.696Z,0
2016-09-02T03:27:29.447Z,0
2016-09-02T03:28:28.715Z,0
2016-09-02T03:29:29.373Z,0
2016-09-02T03:30:28.623Z,0
2016-09-02T03:31:27.922Z,0
2016-09-02T03:32:27.829Z,0
2016-09-02T03:33:29.814Z,0
2016-09-02T03:34:27.998Z,0
2016-09-02T03:35:29.003Z,0
2016-09-02T03:36:27.643Z,0
2016-09-02T03:37:29.215Z,0
2016-09-02T03:38:28.942Z,0
2016-09-02T03:39:29.502Z,0
2016-09-02T03:40:28.852Z,0
2016-09-02T03:41:28.161Z,0
2016-09-02T03:42:28.962Z,0
2016-09-02T03:43:27.901Z,0
2016-09-02T03:44:29.291Z,0
2016-09-02T03:45:27.320Z,0
2016-09-02T03:46:28.793Z,0
2016-09-02T03:47:28.051Z,0
2016-09-02T03:48:27.782Z,0
2016-09-02T03:49:28.633Z,0
2016-09-02T03:50:28.589Z,0
2016-09-02T03:51:26.930Z,0
2016-09-02T03:52:28.307Z,0
2016-09-02T03:53:27.746Z,0
2016-09-02T03:54:28.502Z,0
2016-09-02T03:55:27.457Z,0
2016-09-02T03:56:26.709Z,0
2016-09-02T03:57:27.574Z,0
2016-09-02T03:58:28.079Z,0
2016-09-02T03:59:27.488Z,0
2016-09-02T04:00:27.448Z,0
2016-09-02T04:01:27.869Z,0
2016-09-02T04:02:27.849Z,0
2016-09-02T04:03:25.878Z,0
2016-09-02T04:04:27.044Z,0
2016-09-02T04:05:27.001Z,0
2016-09-02T04:06:27.671Z,0
2016-09-02T04:07:27.821Z,0
2016-09-02T04:08:26.841Z,0
2016-09-02T04:09:26.798Z,0
2016-09-02T04:10:26.579Z,0
2016-09-02T04:11:27.427Z,0
2016-09-02T04:12:27.065Z,0
2016-09-02T04:13:27.384Z,0
2016-09-02T04:14:26.572Z,0
2016-09-02T04:15:26.587Z,0
2016-09-02T04:16:27.555Z,0
2016-09-02T04:17:25.950Z,0
2016-09-02T04:18:27.089Z,0
2016-09-02T04:19:27.254Z,0
2016-09-02T04:20:27.356Z,0
2016-09-02T04:21:27.209Z,0
2016-09-02T04:22:25.487Z,0
2016-09-02T04:23:26.858Z,0
2016-09-02T04:24:26.329Z,0
2016-09-02T04:25:27.524Z,0
2016-09-02T04:26:26.049Z,0
2016-09-02T04:27:27.060Z,0
2016-09-02T04:28:25.948Z,0
2016-09-02T04:29:25.878Z,0
2016-09-02T04:30:26.510Z,0
2016-09-02T04:31:25.978Z,0
2016-09-02T04:32:26.813Z,0
2016-09-02T04:33:26.384Z,0
2016-09-02T04:34:26.582Z,0
2016-09-02T04:35:25.814Z,0
2016-09-02T04:36:26.470Z,0
2016-09-02T04:37:26.196Z,0
2016-09-02T04:38:25.664Z,0
2016-09-02T04:39:26.185Z,0
2016-09-02T04:40:26.608Z,0
2016-09-02T04:41:26.082Z,0
2016-09-02T04:42:25.328Z,0
2016-09-02T04:43:26.126Z,0
2016-09-02T04:44:26.085Z,0
2016-09-02T04:45:26.211Z,0
2016-09-02T04:46:25.298Z,0
2016-09-02T04:47:25.248Z,0
2016-09-02T04:48:25.683Z,0
2016-09-02T04:49:25.017Z,0
2016-09-02T04:50:26.208Z,0
2016-09-02T04:51:26.127Z,0
2016-09-02T04:52:24.968Z,0
2016-09-02T04:53:25.648Z,0
2016-09-02T04:54:24.707Z,0
2016-09-02T04:55:25.390Z,0
2016-09-02T04:56:25.403Z,0
2016-09-02T04:57:24.658Z,0
2016-09-02T04:58:24.730Z,0
2016-09-02T04:59:24.480Z,0
2016-09-02T05:00:25.615Z,0
2016-09-02T05:01:24.773Z,0
2016-09-02T05:02:25.027Z,0
2016-09-02T05:03:24.553Z,0
2016-09-02T05:04:24.933Z,0
2016-09-02T05:05:25.386Z,0
2016-09-02T05:06:23.493Z,0
2016-09-02T05:07:24.314Z,0
2016-09-02T05:08:24.769Z,5
2016-09-02T05:09:24.688Z,5
2016-09-02T05:10:24.648Z,5
2016-09-02T05:11:24.614Z,5
2016-09-02T05:12:25.009Z,5
2016-09-02T05:13:24.558Z,5
2016-09-02T05:14:23.757Z,5
2016-09-02T05:15:24.611Z,5
2016-09-02T05:16:24.350Z,5
2016-09-02T05:17:24.530Z,5
2016-09-02T05:18:24.738Z,5
2016-09-02T05:19:24.228Z,5
2016-09-02T05:20:23.889Z,5
2016-09-02T05:21:23.497Z,5
2016-09-02T05:22:22.941Z,5
2016-09-02T05:23:24.233Z,5
2016-09-02T05:24:23.978Z,5
2016-09-02T05:25:23.278Z,5
2016-09-02T05:26:23.901Z,10
2016-09-02T05:27:23.215Z,10
2016-09-02T05:28:23.101Z,10
2016-09-02T05:29:23.756Z,10
2016-09-02T05:30:23.898Z,10
2016-09-02T05:31:23.860Z,10
2016-09-02T05:32:22.911Z,10
2016-09-02T05:33:22.859Z,10
2016-09-02T05:34:22.305Z,10
2016-09-02T05:35:23.968Z,10
2016-09-02T05:36:22.728Z,10
2016-09-02T05:37:22.684Z,10
2016-09-02T05:38:23.338Z,10
2016-09-02T05:39:22.085Z,10
2016-09-02T05:40:23.581Z,15
2016-09-02T05:41:23.214Z,15
2016-09-02T05:42:23.999Z,15
2016-09-02T05:43:23.094Z,15
2016-09-02T05:44:23.257Z,15
2016-09-02T05:45:23.147Z,15
2016-09-02T05:46:23.181Z,15
2016-09-02T05:47:22.208Z,15
2016-09-02T05:48:22.267Z,15
2016-09-02T05:49:22.847Z,15
2016-09-02T05:50:23.088Z,15
2016-09-02T05:51:22.722Z,15
2016-09-02T05:52:21.324Z,15
2016-09-02T05:53:22.158Z,15
2016-09-02T05:54:21.226Z,15
2016-09-02T05:55:21.348Z,15
2016-09-02T05:56:21.799Z,15
2016-09-02T05:57:22.531Z,15
2016-09-02T05:58:23.428Z,15
2016-09-02T05:59:21.656Z,20
2016-09-02T06:00:22.713Z,20
2016-09-02T06:01:22.259Z,20
2016-09-02T06:02:22.500Z,20
2016-09-02T06:03:22.724Z,20
2016-09-02T06:04:21.449Z,20
2016-09-02T06:05:20.683Z,20
2016-09-02T06:06:20.129Z,20
2016-09-02T06:07:20.820Z,20
2016-09-02T06:08:21.944Z,25
2016-09-02T06:09:21.949Z,25
2016-09-02T06:10:21.319Z,25
2016-09-02T06:11:21.799Z,25
2016-09-02T06:12:19.681Z,25
2016-09-02T06:13:20.534Z,25
2016-09-02T06:14:21.160Z,25
2016-09-02T06:15:21.843Z,25
2016-09-02T06:16:21.074Z,25
2016-09-02T06:17:19.426Z,30
2016-09-02T06:18:20.970Z,30
2016-09-02T06:19:21.649Z,30
2016-09-02T06:20:20.030Z,30
2016-09-02T06:21:21.273Z,30
2016-09-02T06:22:21.329Z,30
2016-09-02T06:23:20.550Z,35
2016-09-02T06:24:20.481Z,35
2016-09-02T06:25:19.858Z,35
2016-09-02T06:26:20.401Z,35
2016-09-02T06:27:19.869Z,35
2016-09-02T06:28:20.310Z,35
2016-09-02T06:29:19.770Z,40
2016-09-02T06:30:20.891Z,40
2016-09-02T06:31:20.367Z,40
2016-09-02T06:32:20.329Z,40
2016-09-02T06:33:20.273Z,40
2016-09-02T06:34:20.031Z,40
2016-09-02T06:35:20.180Z,40
2016-09-02T06:36:19.260Z,40
2016-09-02T06:37:19.213Z,40
2016-09-02T06:38:19.849Z,40
2016-09-02T06:39:19.843Z,40
2016-09-02T06:40:24.648Z,40
2016-09-02T06:41:20.398Z,40
2016-09-02T06:42:19.669Z,40
2016-09-02T06:43:20.507Z,40
2016-09-02T06:44:19.760Z,40
2016-09-02T06:45:18.824Z,40
2016-09-02T06:46:20.179Z,40
2016-09-02T06:47:18.722Z,40
2016-09-02T06:48:19.442Z,40
2016-09-02T06:49:19.347Z,40
2016-09-02T06:50:20.338Z,40
2016-09-02T06:51:20.367Z,40
2016-09-02T06:52:18.690Z,40
2016-09-02T06:53:20.039Z,45
2016-09-02T06:54:18.409Z,45
2016-09-02T06:55:19.069Z,45
2016-09-02T06:56:19.149Z,45
2016-09-02T06:57:19.029Z,45
2016-09-02T06:58:18.965Z,45
2016-09-02T06:59:20.259Z,45
2016-09-02T07:00:18.175Z,45
2016-09-02T07:01:19.651Z,50
2016-09-02T07:02:19.984Z,50
2016-09-02T07:03:19.296Z,50
2016-09-02T07:04:18.190Z,50
2016-09-02T07:05:19.575Z,50
2016-09-02T07:06:19.504Z,55
2016-09-02T07:07:18.953Z,55
2016-09-02T07:08:18.251Z,55
2016-09-02T07:09:18.441Z,55
2016-09-02T07:10:18.858Z,55
2016-09-02T07:11:17.776Z,55
2016-09-02T07:12:18.067Z,55
2016-09-02T07:13:18.694Z,55
2016-09-02T07:14:18.679Z,55
2016-09-02T07:15:19.614Z,60
2016-09-02T07:16:18.747Z,60
2016-09-02T07:17:18.704Z,55
2016-09-02T07:18:18.071Z,60
2016-09-02T07:19:18.092Z,65
2016-09-02T07:20:17.428Z,65
2016-09-02T07:21:17.898Z,60
2016-09-02T07:22:17.163Z,65
2016-09-02T07:23:18.547Z,65
2016-09-02T07:24:18.017Z,65
2016-09-02T07:25:17.474Z,70
2016-09-02T07:26:19.250Z,70
2016-09-02T07:27:17.787Z,70
2016-09-02T07:28:16.919Z,70
2016-09-02T07:29:17.033Z,70
2016-09-02T07:30:19.956Z,75
2016-09-02T07:31:17.462Z,75
2016-09-02T07:32:18.246Z,75
2016-09-02T07:33:18.266Z,75
2016-09-02T07:34:18.399Z,75
2016-09-02T07:35:17.152Z,80
2016-09-02T07:36:16.533Z,80
2016-09-02T07:37:18.108Z,80
2016-09-02T07:38:17.353Z,80
2016-09-02T07:39:17.108Z,80
2016-09-02T07:40:18.149Z,80
2016-09-02T07:41:18.120Z,80
2016-09-02T07:42:17.891Z,80
2016-09-02T07:43:17.830Z,85
2016-09-02T07:44:15.808Z,85
2016-09-02T07:45:17.097Z,85
2016-09-02T07:46:16.299Z,85
2016-09-02T07:47:17.070Z,85
2016-09-02T07:48:17.834Z,90
2016-09-02T07:49:17.558Z,90
2016-09-02T07:50:16.578Z,85
2016-09-02T07:51:16.745Z,90
2016-09-02T07:52:17.487Z,90
2016-09-02T07:53:16.888Z,90
2016-09-02T07:54:15.049Z,95
2016-09-02T07:55:17.296Z,90
2016-09-02T07:56:15.595Z,95
2016-09-02T07:57:17.327Z,95
2016-09-02T07:58:17.514Z,95
2016-09-02T07:59:15.656Z,100
2016-09-02T08:00:15.844Z,95
2016-09-02T08:01:16.292Z,100
2016-09-02T08:02:16.070Z,100
2016-09-02T08:03:16.935Z,100
2016-09-02T08:04:17.283Z,105
2016-09-02T08:05:15.949Z,105
2016-09-02T08:06:13.929Z,105
2016-09-02T08:07:15.185Z,105
2016-09-02T08:08:15.163Z,105
2016-09-02T08:09:15.341Z,105
2016-09-02T08:10:15.985Z,105
2016-09-02T08:11:15.907Z,105
2016-09-02T08:12:15.634Z,110
2016-09-02T08:13:15.595Z,110
2016-09-02T08:14:14.895Z,110
2016-09-02T08:15:16.172Z,110
2016-09-02T08:16:15.475Z,110
2016-09-02T08:17:16.117Z,110
2016-09-02T08:18:14.667Z,105
2016-09-02T08:19:14.922Z,100
2016-09-02T08:20:15.736Z,100
2016-09-02T08:21:14.917Z,105
2016-09-02T08:22:14.496Z,105
2016-09-02T08:23:15.314Z,100
2016-09-02T08:24:15.826Z,105
2016-09-02T08:25:15.928Z,105
2016-09-02T08:26:14.324Z,100
2016-09-02T08:27:15.067Z,105
2016-09-02T08:28:14.902Z,105
2016-09-02T08:29:15.004Z,105
2016-09-02T08:30:15.192Z,105
2016-09-02T08:31:15.180Z,100
2016-09-02T08:32:13.430Z,105
2016-09-02T08:33:14.419Z,105
2016-09-02T08:34:14.817Z,105
2016-09-02T08:35:13.187Z,105
2016-09-02T08:36:13.551Z,105
2016-09-02T08:37:14.107Z,85
2016-09-02T08:38:14.533Z,80
2016-09-02T08:39:15.209Z,110
2016-09-02T08:40:14.356Z,105
2016-09-02T08:42:13.783Z,110
2016-09-02T08:43:14.309Z,110
2016-09-02T08:44:13.561Z,105
2016-09-02T08:45:14.196Z,105
2016-09-02T08:46:12.705Z,105
2016-09-02T08:47:14.287Z,105
2016-09-02T08:48:15.050Z,105
2016-09-02T08:49:15.075Z,105
2016-09-02T08:50:14.793Z,105
2016-09-02T08:51:15.697Z,100
2016-09-02T08:52:12.516Z,100
2016-09-02T08:53:13.821Z,100
2016-09-02T08:54:13.819Z,105
2016-09-02T08:55:13.920Z,105
2016-09-02T08:56:13.671Z,110
2016-09-02T08:57:14.336Z,110
2016-09-02T08:58:13.250Z,110
2016-09-02T08:59:13.115Z,105
2016-09-02T09:00:12.443Z,105
2016-09-02T09:01:13.693Z,100
2016-09-02T09:02:14.114Z,100
2016-09-02T09:03:13.952Z,100
2016-09-02T09:04:13.790Z,100
2016-09-02T09:05:13.189Z,105
2016-09-02T09:06:14.632Z,110
2016-09-02T09:07:14.484Z,105
2016-09-02T09:08:13.905Z,105
2016-09-02T09:09:13.328Z,105
2016-09-02T09:10:12.621Z,110
2016-09-02T09:11:12.727Z,100
2016-09-02T09:12:12.033Z,110
2016-09-02T09:13:13.013Z,100
2016-09-02T09:14:12.224Z,100
2016-09-02T09:15:13.900Z,100
2016-09-02T09:16:12.107Z,90
2016-09-02T09:17:12.499Z,105
2016-09-02T09:18:13.437Z,105
2016-09-02T09:19:12.897Z,105
2016-09-02T09:20:11.715Z,110
2016-09-02T09:21:11.883Z,105
2016-09-02T09:22:13.572Z,110
2016-09-02T09:23:12.060Z,110
2016-09-02T09:24:13.193Z,110
2016-09-02T09:25:12.440Z,110
2016-09-02T09:26:11.721Z,110
2016-09-02T09:27:12.543Z,110
2016-09-02T09:28:12.064Z,110
2016-09-02T09:29:12.518Z,85
2016-09-02T09:30:12.662Z,100
2016-09-02T09:31:12.612Z,65
2016-09-02T09:32:25.856Z,80
2016-09-02T09:33:12.136Z,75
2016-09-02T09:34:13.260Z,75
2016-09-02T09:35:10.606Z,80
2016-09-02T09:36:12.748Z,115
2016-09-02T09:37:12.607Z,90
2016-09-02T09:38:11.153Z,65
2016-09-02T09:39:11.841Z,75
2016-09-02T09:40:12.658Z,70
2016-09-02T09:41:10.552Z,110
2016-09-02T09:42:11.880Z,110
2016-09-02T09:43:11.840Z,95
2016-09-02T09:44:11.836Z,85
2016-09-02T09:45:11.681Z,105
2016-09-02T09:46:10.803Z,105
2016-09-02T09:47:12.531Z,105
2016-09-02T09:48:11.430Z,105
2016-09-02T09:49:11.432Z,100
2016-09-02T09:50:10.056Z,105
2016-09-02T09:51:11.382Z,105
2016-09-02T09:52:10.826Z,105
2016-09-02T09:53:10.718Z,105
2016-09-02T09:54:10.480Z,105
2016-09-02T09:55:11.547Z,100
2016-09-02T09:56:12.012Z,100
2016-09-02T09:57:11.301Z,75
2016-09-02T09:58:11.135Z,75
2016-09-02T09:59:11.075Z,65
2016-09-02T10:00:10.935Z,70
2016-09-02T10:01:10.246Z,95
2016-09-02T10:02:11.739Z,70
2016-09-02T10:03:10.968Z,80
2016-09-02T10:04:11.863Z,95
2016-09-02T10:05:10.887Z,80
2016-09-02T10:06:11.592Z,100
2016-09-02T10:07:11.494Z,95
2016-09-02T10:08:09.168Z,95
2016-09-02T10:09:11.089Z,110
2016-09-02T10:10:10.576Z,85
2016-09-02T10:11:10.694Z,85
2016-09-02T10:12:10.630Z,75
2016-09-02T10:13:11.072Z,80
2016-09-02T10:14:11.449Z,115
2016-09-02T10:15:10.385Z,100
2016-09-02T10:16:10.483Z,110
2016-09-02T10:17:10.483Z,110
2016-09-02T10:18:11.124Z,110
2016-09-02T10:19:09.939Z,110
2016-09-02T10:20:10.795Z,95
2016-09-02T10:21:09.692Z,105
2016-09-02T10:22:10.170Z,80
2016-09-02T10:23:10.844Z,75
2016-09-02T10:24:10.548Z,100
2016-09-02T10:25:09.193Z,100
2016-09-02T10:26:10.263Z,100
2016-09-02T10:27:08.533Z,95
2016-09-02T10:28:09.717Z,95
2016-09-02T10:29:07.601Z,95
2016-09-02T10:30:08.315Z,100
2016-09-02T10:31:09.654Z,95
2016-09-02T10:32:10.107Z,100
2016-09-02T10:33:10.385Z,100
2016-09-02T10:34:10.176Z,100
2016-09-02T10:35:08.726Z,95
2016-09-02T10:36:08.247Z,95
2016-09-02T10:37:08.847Z,95
2016-09-02T10:38:08.088Z,85
2016-09-02T10:39:08.888Z,90
2016-09-02T10:40:09.264Z,90
2016-09-02T10:41:13.626Z,85
2016-09-02T10:42:09.747Z,85
2016-09-02T10:43:08.733Z,85
2016-09-02T10:44:09.269Z,85
2016-09-02T10:45:09.007Z,85
2016-09-02T10:46:08.774Z,90
2016-09-02T10:47:08.693Z,90
2016-09-02T10:48:08.597Z,95
2016-09-02T10:49:09.087Z,95
2016-09-02T10:50:10.758Z,95
2016-09-02T10:51:08.054Z,90
2016-09-02T10:52:08.003Z,90
2016-09-02T10:53:08.670Z,95
2016-09-02T10:54:07.958Z,85
2016-09-02T10:55:08.040Z,95
2016-09-02T10:56:08.564Z,90
2016-09-02T10:57:09.845Z,95
2016-09-02T10:58:07.991Z,95
2016-09-02T10:59:08.388Z,95
2016-09-02T11:00:07.938Z,95
2016-09-02T11:01:07.102Z,90
2016-09-02T11:02:08.957Z,95
2016-09-02T11:03:09.556Z,100
2016-09-02T11:04:09.102Z,100
2016-09-02T11:05:08.402Z,100
2016-09-02T11:06:06.986Z,105
2016-09-02T11:07:08.441Z,105
2016-09-02T11:08:08.275Z,105
2016-09-02T11:09:08.042Z,100
2016-09-02T11:10:07.232Z,105
2016-09-02T11:11:07.471Z,80
2016-09-02T11:12:06.633Z,105
2016-09-02T11:13:08.482Z,60
2016-09-02T11:14:09.913Z,105
2016-09-02T11:15:08.046Z,70
2016-09-02T11:16:07.218Z,90
2016-09-02T11:17:08.483Z,100
2016-09-02T11:18:07.817Z,60
2016-09-02T11:19:06.146Z,75
2016-09-02T11:20:08.721Z,105
2016-09-02T11:21:07.885Z,65
2016-09-02T11:22:06.265Z,90
2016-09-02T11:23:08.703Z,100
2016-09-02T11:24:07.318Z,110
2016-09-02T11:25:07.936Z,95
2016-09-02T11:26:07.234Z,80
2016-09-02T11:27:08.530Z,90
2016-09-02T11:28:06.647Z,90
2016-09-02T11:29:08.004Z,115
2016-09-02T11:30:07.975Z,110
2016-09-02T11:31:06.080Z,105
2016-09-02T11:32:05.783Z,105
2016-09-02T11:33:06.541Z,105
2016-09-02T11:34:06.507Z,110
2016-09-02T11:35:06.991Z,110
2016-09-02T11:36:07.889Z,110
2016-09-02T11:37:05.574Z,110
2016-09-02T11:38:07.124Z,105
2016-09-02T11:39:07.795Z,105
2016-09-02T11:40:06.037Z,100
2016-09-02T11:41:06.703Z,100
2016-09-02T11:42:07.469Z,100
2016-09-02T11:43:06.502Z,100
2016-09-02T11:44:07.365Z,95
2016-09-02T11:45:06.684Z,90
2016-09-02T11:46:05.672Z,105
2016-09-02T11:47:05.668Z,105
2016-09-02T11:48:05.631Z,105
2016-09-02T11:49:05.683Z,105
2016-09-02T11:50:05.672Z,105
2016-09-02T11:51:06.405Z,100
2016-09-02T11:52:06.134Z,100
2016-09-02T11:53:06.784Z,105
2016-09-02T11:54:07.008Z,105
2016-09-02T11:55:04.605Z,105
2016-09-02T11:56:07.298Z,105
2016-09-02T11:57:07.598Z,105
2016-09-02T11:58:06.970Z,105
2016-09-02T11:59:06.835Z,100
2016-09-02T12:00:05.339Z,85
2016-09-02T12:01:06.025Z,90
2016-09-02T12:02:07.685Z,90
2016-09-02T12:03:06.997Z,80
2016-09-02T12:04:06.534Z,85
2016-09-02T12:05:07.229Z,85
2016-09-02T12:06:05.747Z,85
2016-09-02T12:07:07.027Z,85
2016-09-02T12:08:05.537Z,85
2016-09-02T12:09:06.534Z,85
2016-09-02T12:10:06.280Z,90
2016-09-02T12:11:05.446Z,90
2016-09-02T12:12:04.626Z,90
2016-09-02T12:13:05.538Z,90
2016-09-02T12:14:06.136Z,85
2016-09-02T12:15:05.376Z,90
2016-09-02T12:16:05.539Z,90
2016-09-02T12:17:04.647Z,90
2016-09-02T12:18:05.418Z,90
2016-09-02T12:19:05.023Z,100
2016-09-02T12:20:04.270Z,95
2016-09-02T12:21:05.628Z,95
2016-09-02T12:22:05.145Z,95
2016-09-02T12:23:05.756Z,95
2016-09-02T12:24:04.503Z,100
2016-09-02T12:25:04.070Z,100
2016-09-02T12:26:03.547Z,100
2016-09-02T12:27:05.557Z,100
2016-09-02T12:28:03.952Z,100
2016-09-02T12:29:04.800Z,105
2016-09-02T12:30:05.417Z,110
2016-09-02T12:31:03.100Z,105
2016-09-02T12:32:03.778Z,105
2016-09-02T12:33:05.046Z,105
2016-09-02T12:34:05.534Z,100
2016-09-02T12:35:03.848Z,95
2016-09-02T12:36:02.181Z,90
2016-09-02T12:37:04.490Z,90
2016-09-02T12:38:04.637Z,95
2016-09-02T12:39:04.266Z,100
2016-09-02T12:40:05.028Z,100
2016-09-02T12:41:04.798Z,95
2016-09-02T12:42:03.334Z,100
2016-09-02T12:43:05.022Z,95
2016-09-02T12:44:03.817Z,95
2016-09-02T12:45:03.277Z,95
2016-09-02T12:46:03.255Z,105
2016-09-02T12:47:04.945Z,100
2016-09-02T12:48:03.411Z,100
2016-09-02T12:49:04.656Z,95
2016-09-02T12:50:02.307Z,95
2016-09-02T12:51:04.396Z,100
2016-09-02T12:52:03.678Z,100
2016-09-02T12:53:04.553Z,105
2016-09-02T12:54:04.271Z,105
2016-09-02T12:55:04.208Z,105
2016-09-02T12:56:02.763Z,105
2016-09-02T12:57:04.710Z,105
2016-09-02T12:58:02.037Z,105
2016-09-02T12:59:02.647Z,105
2016-09-02T13:00:03.324Z,95
2016-09-02T13:01:05.232Z,95
2016-09-02T13:02:03.425Z,95
2016-09-02T13:03:04.187Z,95
2016-09-02T13:04:03.469Z,95
2016-09-02T13:05:01.685Z,100
2016-09-02T13:06:01.716Z,95
2016-09-02T13:07:03.350Z,95
2016-09-02T13:08:01.801Z,100
2016-09-02T13:09:02.230Z,105
2016-09-02T13:10:03.682Z,100
2016-09-02T13:11:02.511Z,105
2016-09-02T13:12:02.783Z,110
2016-09-02T13:13:02.797Z,110
2016-09-02T13:14:02.766Z,110
2016-09-02T13:15:02.775Z,110
2016-09-02T13:16:01.980Z,110
2016-09-02T13:17:02.609Z,105
2016-09-02T13:18:02.549Z,90
2016-09-02T13:19:02.749Z,105
2016-09-02T13:20:02.727Z,105
2016-09-02T13:21:01.963Z,105
2016-09-02T13:22:02.426Z,100
2016-09-02T13:23:02.818Z,100
2016-09-02T13:24:03.011Z,100
2016-09-02T13:26:02.969Z,100
2016-09-02T13:27:02.149Z,100
2016-09-02T13:28:02.147Z,105
2016-09-02T13:29:02.351Z,115
2016-09-02T13:30:02.101Z,115
2016-09-02T13:31:02.093Z,110
2016-09-02T13:32:01.653Z,115
2016-09-02T13:33:01.328Z,110
2016-09-02T13:34:01.053Z,110
2016-09-02T13:35:01.181Z,110
2016-09-02T13:36:02.038Z,110
2016-09-02T13:37:01.457Z,110
2016-09-02T13:38:02.463Z,105
2016-09-02T13:39:01.980Z,100
2016-09-02T13:40:02.529Z,95
2016-09-02T13:41:01.788Z,85
2016-09-02T13:42:01.114Z,90
2016-09-02T13:43:01.528Z,90
2016-09-02T13:44:02.159Z,105
2016-09-02T13:45:02.156Z,100
2016-09-02T13:46:01.403Z,110
2016-09-02T13:47:01.380Z,105
2016-09-02T13:48:01.700Z,105
2016-09-02T13:49:00.877Z,100
2016-09-02T13:50:01.778Z,95
2016-09-02T13:51:00.897Z,90
2016-09-02T13:52:02.144Z,90
2016-09-02T13:53:02.662Z,95
2016-09-02T13:53:59.890Z,100
2016-09-02T13:55:01.244Z,95
2016-09-02T13:56:01.716Z,100
2016-09-02T13:57:00.985Z,90
2016-09-02T13:58:01.625Z,110
2016-09-02T13:59:01.491Z,120
2016-09-02T14:00:01.521Z,125
2016-09-02T14:01:00.285Z,130
2016-09-02T14:02:00.971Z,135
2016-09-02T14:03:01.608Z,130
2016-09-02T14:04:00.673Z,135
2016-09-02T14:05:00.654Z,150
2016-09-02T14:05:59.919Z,160
2016-09-02T14:07:01.848Z,115
2016-09-02T14:08:01.600Z,130
2016-09-02T14:09:01.449Z,125
2016-09-02T14:09:59.969Z,110
2016-09-02T14:11:00.772Z,100
2016-09-02T14:12:01.030Z,160
2016-09-02T14:13:00.310Z,100
2016-09-02T14:13:59.783Z,90
2016-09-02T14:14:59.016Z,90
2016-09-02T14:16:01.087Z,105
2016-09-02T14:17:00.975Z,90
2016-09-02T14:18:00.300Z,90
2016-09-02T14:19:01.183Z,90
2016-09-02T14:20:01.116Z,95